createdAt,value
2023-05-09T00:01:48.490Z,89.14
2023-05-09T00:04:53.103Z,90.59
2023-05-09T00:07:59.292Z,87.92
2023-05-09T00:11:03.978Z,88.79
2023-05-09T00:14:08.584Z,89.37
2023-05-09T00:17:15.698Z,88.46
2023-05-09T00:20:20.734Z,91.34
2023-05-09T00:23:25.302Z,91.78
2023-05-09T00:26:29.783Z,92.99
2023-05-09T00:29:34.261Z,91.66
2023-05-09T00:32:40.361Z,96.08
2023-05-09T00:35:44.930Z,95.65
2023-05-09T00:38:49.464Z,93.10
2023-05-09T00:41:56.018Z,92.60
2023-05-09T00:45:01.091Z,90.45
2023-05-09T00:48:06.080Z,93.48
2023-05-09T00:51:11.120Z,89.51
2023-05-09T00:54:15.990Z,93.85
2023-05-09T00:57:20.586Z,92.44
2023-05-09T01:00:25.352Z,94.15
2023-05-09T01:03:31.207Z,92.89
2023-05-09T01:06:57.934Z,96.50
2023-05-09T01:10:10.850Z,99.79
2023-05-09T01:13:24.419Z,100.00
2023-05-09T01:16:50.202Z,96.85
2023-05-09T01:20:11.038Z,95.00
2023-05-09T01:23:53.775Z,95.31
2023-05-09T01:27:27.331Z,97.13
2023-05-09T01:30:34.544Z,94.95
2023-05-09T01:33:42.495Z,94.28
2023-05-09T01:36:50.502Z,96.01
2023-05-09T01:39:59.928Z,92.52
2023-05-09T01:43:09.958Z,89.31
2023-05-09T01:46:18.321Z,89.48
2023-05-09T01:49:24.989Z,86.33
2023-05-09T01:52:30.522Z,84.64
2023-05-09T01:55:37.590Z,88.03
2023-05-09T01:58:43.791Z,86.00
2023-05-09T02:01:49.302Z,87.44
2023-05-09T02:04:56.275Z,88.47
2023-05-09T02:08:02.385Z,90.20
2023-05-09T02:11:11.090Z,80.89
2023-05-09T02:14:15.828Z,83.42
2023-05-09T02:17:21.549Z,84.21
2023-05-09T02:20:26.074Z,83.31
2023-05-09T02:23:31.252Z,82.07
2023-05-09T02:26:36.210Z,85.46
2023-05-09T02:29:47.425Z,90.29
2023-05-09T02:32:56.741Z,94.89
2023-05-09T02:36:01.870Z,96.20
2023-05-09T02:39:07.085Z,99.27
2023-05-09T02:42:13.461Z,98.30
2023-05-09T02:45:19.298Z,96.78
2023-05-09T02:48:23.977Z,93.17
2023-05-09T02:51:28.442Z,94.37
2023-05-09T02:54:33.021Z,92.21
2023-05-09T02:57:37.956Z,97.32
2023-05-09T03:00:43.088Z,96.08
2023-05-09T03:03:48.209Z,92.76
2023-05-09T03:06:55.239Z,98.45
2023-05-09T03:10:00.207Z,100.00
2023-05-09T03:13:05.226Z,100.00
2023-05-09T03:16:17.027Z,100.00
2023-05-09T03:19:22.532Z,100.00
2023-05-09T03:22:27.019Z,97.82
2023-05-09T03:25:36.588Z,99.23
2023-05-09T03:28:42.280Z,93.18
2023-05-09T03:31:46.856Z,96.43
2023-05-09T03:34:51.582Z,97.25
2023-05-09T03:37:56.112Z,98.47
2023-05-09T03:41:00.697Z,95.48
2023-05-09T03:44:05.812Z,95.08
2023-05-09T03:47:12.340Z,92.68
2023-05-09T03:50:18.126Z,94.72
2023-05-09T03:53:23.518Z,93.80
2023-05-09T03:56:29.971Z,98.70
2023-05-09T03:59:35.563Z,100.00
2023-05-09T04:02:42.049Z,100.00
2023-05-09T04:05:51.589Z,100.00
2023-05-09T04:09:07.034Z,99.98
2023-05-09T04:12:12.435Z,96.85
2023-05-09T04:15:18.112Z,95.12
2023-05-09T04:18:22.790Z,98.14
2023-05-09T04:21:27.269Z,100.00
2023-05-09T04:24:35.868Z,100.00
2023-05-09T04:27:40.536Z,100.00
2023-05-09T04:30:45.738Z,100.00
2023-05-09T04:33:51.363Z,100.00
2023-05-09T04:36:56.097Z,100.00
2023-05-09T04:40:01.424Z,100.00
2023-05-09T04:43:14.297Z,100.00
2023-05-09T04:46:18.825Z,100.00
2023-05-09T04:49:25.392Z,100.00
2023-05-09T04:52:29.870Z,100.00
2023-05-09T04:55:34.418Z,100.00
2023-05-09T04:58:39.476Z,100.00
2023-05-09T05:01:47.414Z,100.00
2023-05-09T05:04:54.344Z,100.00
2023-05-09T05:08:03.311Z,100.00
2023-05-09T05:11:13.689Z,96.88
2023-05-09T05:14:18.288Z,97.06
2023-05-09T05:17:24.662Z,96.89
2023-05-09T05:20:29.691Z,93.42
2023-05-09T05:23:34.335Z,94.71
2023-05-09T05:26:38.907Z,96.62
2023-05-09T05:29:44.137Z,88.20
2023-05-09T05:32:48.818Z,93.78
2023-05-09T05:35:56.325Z,96.54
2023-05-09T05:39:00.830Z,95.40
2023-05-09T05:42:05.633Z,92.49
2023-05-09T05:45:10.703Z,88.38
2023-05-09T05:48:18.373Z,89.73
2023-05-09T05:51:24.412Z,87.96
2023-05-09T05:54:29.367Z,87.07
2023-05-09T05:57:38.967Z,86.87
2023-05-09T06:00:45.975Z,83.48
2023-05-09T06:03:54.703Z,80.67
2023-05-09T06:07:01.723Z,79.65
2023-05-09T06:10:07.642Z,84.95
2023-05-09T06:13:12.192Z,76.59
2023-05-09T06:16:21.633Z,77.61
2023-05-09T06:19:28.131Z,73.36
2023-05-09T06:22:32.732Z,78.20
2023-05-09T06:25:37.238Z,75.13
2023-05-09T06:28:43.318Z,71.76
2023-05-09T06:31:47.960Z,73.32
2023-05-09T06:34:53.057Z,71.74
2023-05-09T06:37:57.506Z,84.89
2023-05-09T06:41:01.980Z,80.96
2023-05-09T06:44:06.731Z,79.69
2023-05-09T06:47:11.288Z,70.20
2023-05-09T06:50:15.799Z,70.85
2023-05-09T06:53:20.364Z,65.67
2023-05-09T06:56:25.268Z,64.67
2023-05-09T06:59:29.936Z,68.91
2023-05-09T07:02:34.474Z,70.27
2023-05-09T07:05:39.000Z,65.13
2023-05-09T07:08:43.550Z,66.21
2023-05-09T07:11:48.131Z,63.76
2023-05-09T07:14:52.576Z,61.83
2023-05-09T07:17:57.118Z,61.21
2023-05-09T07:21:01.626Z,63.85
2023-05-09T07:24:06.451Z,59.13
2023-05-09T07:27:10.976Z,61.66
2023-05-09T07:30:15.846Z,59.70
2023-05-09T07:33:20.417Z,55.24
2023-05-09T07:36:24.884Z,58.40
2023-05-09T07:39:29.369Z,59.76
2023-05-09T07:42:34.240Z,59.29
2023-05-09T07:45:38.794Z,58.61
2023-05-09T07:48:43.451Z,56.46
2023-05-09T07:51:47.986Z,56.78
2023-05-09T07:54:52.507Z,55.50
2023-05-09T07:57:58.419Z,53.45
2023-05-09T08:01:02.890Z,54.39
2023-05-09T08:04:08.924Z,52.56
2023-05-09T08:07:13.531Z,53.05
2023-05-09T08:10:18.186Z,50.67
2023-05-09T08:13:22.818Z,50.53
2023-05-09T08:16:27.767Z,49.62
2023-05-09T08:19:32.525Z,50.80
2023-05-09T08:22:39.075Z,49.31
2023-05-09T08:25:43.637Z,48.74
2023-05-09T08:28:48.143Z,47.78
2023-05-09T08:31:52.724Z,47.32
2023-05-09T08:34:57.295Z,48.26
2023-05-09T08:38:01.778Z,48.04
2023-05-09T08:41:06.271Z,46.47
2023-05-09T08:44:11.310Z,47.44
2023-05-09T08:47:16.479Z,47.70
2023-05-09T08:50:22.194Z,42.92
2023-05-09T08:53:27.121Z,44.23
2023-05-09T08:56:31.818Z,43.64
2023-05-09T08:59:37.499Z,41.90
2023-05-09T09:02:44.540Z,44.44
2023-05-09T09:05:50.680Z,43.30
2023-05-09T09:08:56.350Z,44.69
2023-05-09T09:12:01.632Z,40.93
2023-05-09T09:15:14.454Z,43.83
2023-05-09T09:18:23.295Z,44.68
2023-05-09T09:21:27.893Z,41.90
2023-05-09T09:24:33.826Z,40.32
2023-05-09T09:27:38.383Z,40.84
2023-05-09T09:30:47.976Z,43.40
2023-05-09T09:33:52.777Z,41.79
2023-05-09T09:36:58.159Z,39.79
2023-05-09T09:40:04.105Z,41.09
2023-05-09T09:46:41.386Z,39.58
2023-05-09T09:49:47.789Z,38.17
2023-05-09T09:52:55.645Z,38.25
2023-05-09T09:56:00.243Z,35.94
2023-05-09T09:59:12.687Z,39.48
2023-05-09T10:02:23.570Z,40.00
2023-05-09T10:05:29.937Z,37.39
2023-05-09T10:08:34.525Z,36.02
2023-05-09T10:11:39.069Z,36.67
2023-05-09T10:14:44.748Z,36.13
2023-05-09T10:17:56.353Z,36.39
2023-05-09T10:21:03.272Z,37.56
2023-05-09T10:24:08.806Z,37.37
2023-05-09T10:27:14.983Z,36.79
2023-05-09T10:30:23.326Z,34.56
2023-05-09T10:33:43.588Z,37.08
2023-05-09T10:36:49.236Z,40.37
2023-05-09T10:39:55.688Z,34.04
2023-05-09T10:43:00.575Z,35.76
2023-05-09T10:46:05.919Z,31.80
2023-05-09T10:49:10.580Z,34.93
2023-05-09T10:52:15.468Z,33.83
2023-05-09T10:55:19.946Z,32.16
2023-05-09T10:58:28.292Z,33.32
2023-05-09T11:01:37.260Z,33.38
2023-05-09T11:04:42.244Z,32.23
2023-05-09T11:07:46.755Z,33.00
2023-05-09T11:10:53.102Z,31.48
2023-05-09T11:13:58.332Z,33.56
2023-05-09T11:17:04.950Z,33.21
2023-05-09T11:20:09.962Z,31.74
2023-05-09T11:23:21.804Z,30.50
2023-05-09T11:26:28.641Z,30.93
2023-05-09T11:29:44.109Z,30.65
2023-05-09T11:32:58.899Z,30.57
2023-05-09T11:36:31.924Z,28.44
2023-05-09T11:39:55.972Z,28.64
2023-05-09T11:43:01.264Z,31.51
2023-05-09T11:46:06.237Z,26.34
2023-05-09T11:49:12.111Z,29.74
2023-05-09T11:52:18.785Z,28.35
2023-05-09T11:55:25.078Z,25.84
2023-05-09T11:58:29.633Z,26.46
2023-05-09T12:01:34.328Z,25.52
2023-05-09T12:04:39.224Z,26.62
2023-05-09T12:07:44.841Z,24.12
2023-05-09T12:10:49.394Z,25.72
2023-05-09T12:13:54.036Z,28.16
2023-05-09T12:16:58.848Z,27.07
2023-05-09T12:20:06.933Z,25.07
2023-05-09T12:23:14.460Z,25.33
2023-05-09T12:26:20.617Z,23.10
2023-05-09T12:29:25.922Z,25.25
2023-05-09T12:32:32.844Z,28.24
2023-05-09T12:35:39.421Z,27.01
2023-05-09T12:38:56.535Z,26.80
2023-05-09T12:42:02.301Z,26.47
2023-05-09T12:45:11.441Z,24.35
2023-05-09T12:48:16.078Z,28.46
2023-05-09T12:51:21.965Z,24.98
2023-05-09T12:54:28.997Z,24.83
2023-05-09T12:57:33.619Z,26.95
2023-05-09T13:00:44.429Z,27.38
2023-05-09T13:03:59.759Z,25.78
2023-05-09T13:07:10.128Z,24.85
2023-05-09T13:10:15.278Z,26.37
2023-05-09T13:13:20.430Z,25.85
2023-05-09T13:16:25.338Z,26.09
2023-05-09T13:19:33.526Z,25.54
2023-05-09T13:22:38.052Z,27.17
2023-05-09T13:25:42.629Z,25.54
2023-05-09T13:28:47.163Z,26.39
2023-05-09T13:31:52.045Z,28.38
2023-05-09T13:34:56.685Z,27.90
2023-05-09T13:38:01.224Z,24.43
2023-05-09T13:41:07.447Z,26.53
2023-05-09T13:44:11.977Z,26.92
2023-05-09T13:47:16.446Z,24.47
2023-05-09T13:50:21.047Z,26.36
2023-05-09T13:53:25.650Z,25.35
2023-05-09T13:56:30.195Z,24.59
2023-05-09T13:59:36.595Z,25.83
2023-05-09T14:02:41.382Z,24.29
2023-05-09T14:05:46.181Z,23.67
2023-05-09T14:08:50.720Z,27.81
2023-05-09T14:11:55.659Z,26.46
2023-05-09T14:15:00.396Z,25.62
2023-05-09T14:18:05.061Z,26.53
2023-05-09T14:21:09.707Z,26.29
2023-05-09T14:24:16.102Z,24.02
2023-05-09T14:27:22.602Z,23.93
2023-05-09T14:30:27.222Z,24.02
2023-05-09T14:33:32.753Z,23.65
2023-05-09T14:36:37.561Z,23.51
2023-05-09T14:39:43.340Z,22.61
2023-05-09T14:42:48.430Z,23.49
2023-05-09T14:45:53.207Z,22.31
2023-05-09T14:49:03.843Z,23.01
2023-05-09T14:52:08.673Z,24.11
2023-05-09T14:55:13.424Z,23.64
2023-05-09T14:58:18.250Z,23.30
2023-05-09T15:01:23.511Z,24.19
2023-05-09T15:04:30.499Z,23.94
2023-05-09T15:07:35.911Z,23.37
2023-05-09T15:10:40.864Z,23.10
2023-05-09T15:13:45.381Z,23.96
2023-05-09T15:16:52.150Z,24.25
2023-05-09T15:19:56.779Z,24.82
2023-05-09T15:23:01.629Z,23.39
2023-05-09T15:26:12.297Z,23.53
2023-05-09T15:29:18.401Z,24.24
2023-05-09T15:32:23.462Z,25.82
2023-05-09T15:35:28.115Z,24.43
2023-05-09T15:38:32.634Z,25.47
2023-05-09T15:41:37.169Z,24.63
2023-05-09T15:44:47.083Z,23.93
2023-05-09T15:47:52.898Z,25.39
2023-05-09T15:50:57.461Z,25.61
2023-05-09T15:54:02.057Z,25.46
2023-05-09T15:57:07.123Z,24.72
2023-05-09T16:00:12.495Z,24.49
2023-05-09T16:03:18.096Z,25.69
2023-05-09T16:06:22.779Z,26.34
2023-05-09T16:09:28.560Z,26.39
2023-05-09T16:12:33.165Z,25.12
2023-05-09T16:15:37.690Z,26.73
2023-05-09T16:18:42.499Z,27.04
2023-05-09T16:21:47.140Z,26.90
2023-05-09T16:24:51.755Z,26.80
2023-05-09T16:27:57.761Z,26.41
2023-05-09T16:31:04.805Z,28.46
2023-05-09T16:34:09.546Z,27.22
2023-05-09T16:37:16.007Z,27.38
2023-05-09T16:40:21.193Z,27.57
2023-05-09T16:43:25.732Z,27.79
2023-05-09T16:46:30.187Z,29.22
2023-05-09T16:49:34.789Z,28.90
2023-05-09T16:52:39.306Z,28.71
2023-05-09T16:55:43.890Z,29.93
2023-05-09T16:58:49.320Z,30.04
2023-05-09T17:01:53.963Z,29.37
2023-05-09T17:04:58.551Z,31.94
2023-05-09T17:08:05.131Z,32.20
2023-05-09T17:11:09.829Z,30.67
2023-05-09T17:14:14.437Z,31.51
2023-05-09T17:17:18.926Z,31.45
2023-05-09T17:20:25.751Z,30.67
2023-05-09T17:23:30.421Z,32.09
2023-05-09T17:26:35.179Z,33.01
2023-05-09T17:29:39.706Z,33.99
2023-05-09T17:32:44.732Z,34.03
2023-05-09T17:35:50.070Z,35.07
2023-05-09T17:38:54.597Z,34.86
2023-05-09T17:42:01.854Z,35.54
2023-05-09T17:45:07.141Z,35.87
2023-05-09T17:48:11.748Z,36.46
2023-05-09T17:51:16.922Z,35.77
2023-05-09T17:54:21.490Z,37.09
2023-05-09T17:57:26.127Z,37.56
2023-05-09T18:00:30.838Z,37.41
2023-05-09T18:03:35.549Z,37.60
2023-05-09T18:06:40.297Z,38.66
2023-05-09T18:09:44.950Z,38.92
2023-05-09T18:12:49.463Z,39.13
2023-05-09T18:15:59.322Z,39.69
2023-05-09T18:19:03.812Z,39.07
2023-05-09T18:22:08.303Z,39.81
2023-05-09T18:25:13.663Z,40.49
2023-05-09T18:28:24.440Z,39.92
2023-05-09T18:31:29.428Z,40.18
2023-05-09T18:34:34.062Z,41.60
2023-05-09T18:37:38.576Z,40.96
2023-05-09T18:40:43.067Z,40.14
2023-05-09T18:43:47.807Z,41.53
2023-05-09T18:46:53.469Z,42.19
2023-05-09T18:49:59.694Z,42.55
2023-05-09T18:53:07.355Z,41.60
2023-05-09T18:56:11.788Z,43.12
2023-05-09T18:59:17.178Z,43.70
2023-05-09T19:02:22.565Z,43.07
2023-05-09T19:05:27.483Z,44.22
2023-05-09T19:08:32.064Z,44.47
2023-05-09T19:11:38.365Z,43.47
2023-05-09T19:14:43.217Z,44.00
2023-05-09T19:17:47.783Z,43.51
2023-05-09T19:20:52.168Z,44.73
2023-05-09T19:23:56.832Z,44.34
2023-05-09T19:27:02.706Z,44.81
2023-05-09T19:30:07.730Z,46.05
2023-05-09T19:33:12.444Z,46.32
2023-05-09T19:36:17.867Z,46.12
2023-05-09T19:39:22.303Z,46.67
2023-05-09T19:42:26.911Z,46.87
2023-05-09T19:45:31.418Z,47.63
2023-05-09T19:48:35.907Z,46.15
2023-05-09T19:51:40.481Z,47.56
2023-05-09T19:54:45.112Z,47.67
2023-05-09T19:57:51.354Z,47.81
2023-05-09T20:00:55.836Z,47.92
2023-05-09T20:04:00.748Z,48.12
2023-05-09T20:07:05.440Z,47.79
2023-05-09T20:10:12.618Z,48.17
2023-05-09T20:13:17.366Z,48.87
2023-05-09T20:16:22.268Z,48.57
2023-05-09T20:19:26.898Z,50.27
2023-05-09T20:22:31.318Z,50.41
2023-05-09T20:25:36.067Z,48.46
2023-05-09T20:28:41.100Z,50.98
2023-05-09T20:31:45.558Z,50.03
2023-05-09T20:34:50.183Z,49.91
2023-05-09T20:37:54.875Z,51.08
2023-05-09T20:40:59.305Z,51.00
2023-05-09T20:44:04.559Z,51.11
2023-05-09T20:47:09.081Z,49.96
2023-05-09T20:50:17.288Z,52.14
2023-05-09T20:53:26.306Z,51.42
2023-05-09T20:56:30.885Z,50.08
2023-05-09T20:59:35.263Z,52.26
2023-05-09T21:02:39.841Z,53.39
2023-05-09T21:05:44.463Z,50.89
2023-05-09T21:08:50.638Z,51.86
2023-05-09T21:11:55.152Z,51.80
2023-05-09T21:14:59.583Z,52.22
2023-05-09T21:18:04.238Z,53.84
2023-05-09T21:21:08.795Z,52.59
2023-05-09T21:24:14.338Z,54.14
2023-05-09T21:27:18.847Z,53.70
2023-05-09T21:30:23.341Z,52.20
2023-05-09T21:33:27.974Z,54.09
2023-05-09T21:36:32.342Z,55.24
2023-05-09T21:39:36.721Z,54.47
2023-05-09T21:42:41.574Z,54.09
2023-05-09T21:45:46.271Z,56.70
2023-05-09T21:48:50.791Z,56.84
2023-05-09T21:51:55.212Z,57.63
2023-05-09T21:54:59.637Z,55.61
2023-05-09T21:58:04.005Z,56.24
2023-05-09T22:01:08.555Z,57.33
2023-05-09T22:04:13.477Z,58.18
2023-05-09T22:07:17.795Z,56.70
2023-05-09T22:10:22.460Z,58.25
2023-05-09T22:13:28.638Z,56.63
2023-05-09T22:16:33.172Z,57.19
2023-05-09T22:19:38.294Z,58.11
2023-05-09T22:22:42.820Z,55.90
2023-05-09T22:25:47.310Z,55.32
2023-05-09T22:28:51.840Z,56.35
2023-05-09T22:31:56.451Z,57.46
2023-05-09T22:35:01.059Z,58.15
2023-05-09T22:38:05.593Z,60.35
2023-05-09T22:41:10.143Z,58.18
2023-05-09T22:44:16.578Z,60.58
2023-05-09T22:47:21.044Z,60.51
2023-05-09T22:50:25.467Z,62.10
2023-05-09T22:53:30.588Z,61.87
2023-05-09T22:56:34.956Z,61.44
2023-05-09T22:59:39.393Z,61.52
2023-05-09T23:02:44.129Z,59.74
2023-05-09T23:05:48.832Z,61.56
2023-05-09T23:08:53.394Z,63.18
2023-05-09T23:11:57.765Z,62.22
2023-05-09T23:15:03.375Z,59.79
2023-05-09T23:18:07.949Z,62.44
2023-05-09T23:21:12.525Z,59.86
2023-05-09T23:24:18.672Z,62.02
2023-05-09T23:27:23.448Z,64.42
2023-05-09T23:30:28.263Z,63.71
2023-05-09T23:33:32.832Z,67.69
2023-05-09T23:36:37.297Z,62.92
2023-05-09T23:39:41.741Z,64.36
2023-05-09T23:42:46.398Z,65.85
2023-05-09T23:45:51.256Z,64.46
2023-05-09T23:48:56.187Z,68.40
2023-05-09T23:52:00.751Z,67.14
2023-05-09T23:55:05.864Z,65.65
2023-05-09T23:58:10.806Z,65.84
